createdAt,value
2022-12-27T00:01:52.737Z,58.31
2022-12-27T00:04:23.956Z,53.45
2022-12-27T00:06:54.408Z,59.34
2022-12-27T00:09:25.618Z,57.73
2022-12-27T00:11:59.983Z,60.94
2022-12-27T00:14:31.401Z,58.42
2022-12-27T00:17:02.252Z,55.23
2022-12-27T00:19:33.373Z,55.90
2022-12-27T00:22:04.381Z,58.76
2022-12-27T00:24:36.775Z,62.22
2022-12-27T00:27:08.207Z,61.52
2022-12-27T00:29:39.114Z,61.38
2022-12-27T00:32:09.955Z,57.56
2022-12-27T00:34:41.343Z,60.72
2022-12-27T00:37:11.717Z,52.10
2022-12-27T00:39:42.948Z,52.30
2022-12-27T00:42:14.356Z,53.06
2022-12-27T00:44:45.262Z,47.08
2022-12-27T00:47:16.166Z,46.83
2022-12-27T00:49:47.566Z,49.02
2022-12-27T00:52:19.350Z,50.19
2022-12-27T00:54:50.733Z,52.47
2022-12-27T00:57:21.905Z,48.63
2022-12-27T00:59:53.220Z,50.04
2022-12-27T01:02:23.742Z,41.64
2022-12-27T01:04:56.118Z,41.23
2022-12-27T01:07:27.531Z,46.09
2022-12-27T01:09:58.449Z,43.24
2022-12-27T01:12:28.982Z,37.62
2022-12-27T01:15:00.349Z,40.65
2022-12-27T01:17:33.191Z,40.50
2022-12-27T01:20:04.645Z,39.23
2022-12-27T01:22:35.824Z,44.07
2022-12-27T01:25:07.687Z,45.70
2022-12-27T01:27:38.587Z,42.14
2022-12-27T01:30:09.582Z,43.49
2022-12-27T01:32:40.672Z,45.90
2022-12-27T01:35:11.862Z,45.80
2022-12-27T01:37:42.966Z,48.68
2022-12-27T01:40:14.856Z,43.76
2022-12-27T01:42:56.307Z,44.60
2022-12-27T01:45:30.454Z,43.55
2022-12-27T01:48:01.554Z,40.85
2022-12-27T01:50:32.053Z,39.19
2022-12-27T01:53:25.276Z,40.34
2022-12-27T01:56:05.636Z,40.82
2022-12-27T01:58:59.065Z,40.96
2022-12-27T02:01:35.511Z,41.34
2022-12-27T02:04:13.032Z,42.25
2022-12-27T02:06:45.012Z,38.97
2022-12-27T02:09:50.337Z,44.31
2022-12-27T02:12:22.685Z,42.89
2022-12-27T02:14:54.306Z,43.99
2022-12-27T02:17:28.141Z,44.69
2022-12-27T02:20:13.967Z,47.21
2022-12-27T02:23:39.844Z,45.85
2022-12-27T02:26:44.880Z,44.60
2022-12-27T02:29:22.665Z,43.60
2022-12-27T02:32:07.271Z,43.23
2022-12-27T02:34:47.116Z,42.20
2022-12-27T02:37:18.330Z,41.60
2022-12-27T02:39:50.904Z,42.05
2022-12-27T02:42:40.519Z,38.03
2022-12-27T02:45:38.811Z,41.14
2022-12-27T02:48:32.005Z,42.26
2022-12-27T02:51:24.147Z,37.85
2022-12-27T02:54:26.052Z,40.62
2022-12-27T02:57:55.261Z,42.56
2022-12-27T03:00:45.430Z,41.14
2022-12-27T03:03:44.742Z,40.75
2022-12-27T03:06:43.542Z,42.25
2022-12-27T03:10:04.579Z,45.05
2022-12-27T03:13:00.235Z,43.02
2022-12-27T03:15:58.877Z,43.87
2022-12-27T03:18:33.174Z,47.65
2022-12-27T03:21:24.038Z,46.91
2022-12-27T03:24:16.146Z,47.64
2022-12-27T03:26:49.812Z,56.57
2022-12-27T03:29:40.201Z,55.01
2022-12-27T03:32:31.221Z,56.51
2022-12-27T03:35:14.763Z,58.41
2022-12-27T03:38:04.328Z,58.27
2022-12-27T03:41:26.247Z,59.08
2022-12-27T03:43:57.366Z,60.09
2022-12-27T03:46:36.238Z,63.14
2022-12-27T03:49:29.069Z,62.37
2022-12-27T03:52:33.877Z,66.15
2022-12-27T03:55:07.008Z,69.44
2022-12-27T03:57:38.623Z,69.56
2022-12-27T04:00:10.840Z,68.20
2022-12-27T04:02:44.547Z,68.96
2022-12-27T04:05:16.163Z,67.58
2022-12-27T04:08:05.195Z,65.91
2022-12-27T04:10:54.070Z,67.22
2022-12-27T04:13:43.591Z,66.97
2022-12-27T04:16:33.212Z,68.07
2022-12-27T04:19:22.220Z,65.52
2022-12-27T04:22:11.247Z,64.86
2022-12-27T04:25:00.821Z,65.25
2022-12-27T04:27:51.179Z,65.00
2022-12-27T04:30:40.626Z,66.31
2022-12-27T04:33:29.438Z,66.82
2022-12-27T04:36:05.974Z,64.85
2022-12-27T04:38:37.863Z,65.18
2022-12-27T04:41:26.796Z,67.02
2022-12-27T04:44:16.142Z,71.79
2022-12-27T04:47:05.109Z,68.88
2022-12-27T04:49:54.807Z,71.38
2022-12-27T04:52:44.701Z,74.03
2022-12-27T04:55:23.242Z,68.85
2022-12-27T04:57:55.091Z,67.87
2022-12-27T05:00:49.271Z,70.55
2022-12-27T05:03:23.342Z,73.99
2022-12-27T05:05:55.172Z,70.23
2022-12-27T05:08:46.412Z,70.48
2022-12-27T05:11:35.799Z,70.63
2022-12-27T05:14:10.990Z,72.14
2022-12-27T05:16:44.369Z,70.54
2022-12-27T05:19:16.970Z,72.29
2022-12-27T05:22:05.949Z,78.32
2022-12-27T05:24:55.529Z,79.44
2022-12-27T05:27:26.672Z,79.61
2022-12-27T05:29:57.613Z,75.99
2022-12-27T05:32:28.605Z,79.91
2022-12-27T05:34:59.799Z,78.02
2022-12-27T05:37:32.784Z,77.41
2022-12-27T05:40:03.366Z,74.48
2022-12-27T05:42:34.391Z,78.22
2022-12-27T05:45:06.095Z,80.23
2022-12-27T05:47:37.132Z,80.82
2022-12-27T05:50:09.801Z,84.65
2022-12-27T05:52:41.503Z,86.64
2022-12-27T05:55:14.211Z,86.81
2022-12-27T05:57:46.271Z,87.43
2022-12-27T06:00:17.883Z,91.13
2022-12-27T06:02:49.958Z,88.99
2022-12-27T06:05:22.236Z,90.77
2022-12-27T06:07:54.323Z,90.20
2022-12-27T06:10:26.290Z,93.14
2022-12-27T06:12:58.592Z,93.21
2022-12-27T06:15:30.783Z,92.99
2022-12-27T06:18:05.408Z,94.87
2022-12-27T06:20:37.885Z,98.13
2022-12-27T06:23:09.064Z,99.81
2022-12-27T06:25:40.120Z,100.00
2022-12-27T06:28:11.196Z,100.00
2022-12-27T06:30:42.124Z,100.00
2022-12-27T06:33:13.345Z,100.00
2022-12-27T06:35:44.042Z,100.00
2022-12-27T06:38:15.228Z,100.00
2022-12-27T06:40:45.903Z,100.00
2022-12-27T06:43:17.328Z,100.00
2022-12-27T06:46:01.067Z,100.00
2022-12-27T06:48:32.631Z,100.00
2022-12-27T06:51:09.860Z,100.00
2022-12-27T06:53:41.337Z,100.00
2022-12-27T06:56:20.596Z,100.00
2022-12-27T06:58:53.331Z,100.00
2022-12-27T07:01:27.052Z,100.00
2022-12-27T07:04:01.351Z,100.00
2022-12-27T07:06:33.590Z,100.00
2022-12-27T07:09:05.147Z,100.00
2022-12-27T07:11:37.392Z,100.00
2022-12-27T07:14:11.287Z,100.00
2022-12-27T07:16:45.691Z,100.00
2022-12-27T07:19:16.983Z,100.00
2022-12-27T07:21:48.564Z,100.00
2022-12-27T07:24:19.832Z,100.00
2022-12-27T07:26:51.264Z,100.00
2022-12-27T07:29:41.895Z,100.00
2022-12-27T07:32:16.562Z,100.00
2022-12-27T07:34:47.301Z,100.00
2022-12-27T07:37:19.565Z,100.00
2022-12-27T07:39:50.989Z,100.00
2022-12-27T07:42:22.098Z,100.00
2022-12-27T07:44:53.205Z,100.00
2022-12-27T07:47:24.991Z,100.00
2022-12-27T07:49:56.132Z,100.00
2022-12-27T07:52:28.613Z,100.00
2022-12-27T07:55:00.052Z,100.00
2022-12-27T07:57:33.061Z,100.00
2022-12-27T08:00:05.876Z,100.00
2022-12-27T08:02:42.300Z,100.00
2022-12-27T08:05:13.303Z,100.00
2022-12-27T08:07:45.184Z,100.00
2022-12-27T08:10:16.375Z,100.00
2022-12-27T08:12:47.292Z,100.00
2022-12-27T08:15:18.489Z,100.00
2022-12-27T08:17:49.259Z,100.00
2022-12-27T08:20:20.427Z,100.00
2022-12-27T08:22:51.400Z,100.00
2022-12-27T08:25:23.248Z,100.00
2022-12-27T08:27:54.544Z,100.00
2022-12-27T08:30:25.487Z,100.00
2022-12-27T08:32:56.593Z,100.00
2022-12-27T08:35:51.736Z,100.00
2022-12-27T08:38:19.777Z,100.00
2022-12-27T08:40:50.793Z,100.00
2022-12-27T08:43:22.333Z,100.00
2022-12-27T08:45:53.641Z,100.00
2022-12-27T08:48:25.129Z,100.00
2022-12-27T08:50:56.844Z,100.00
2022-12-27T08:53:28.293Z,100.00
2022-12-27T08:55:59.551Z,100.00
2022-12-27T08:58:30.387Z,100.00
2022-12-27T09:01:09.684Z,100.00
2022-12-27T09:03:40.998Z,100.00
2022-12-27T09:06:15.679Z,100.00
2022-12-27T09:08:48.455Z,100.00
2022-12-27T09:11:22.358Z,100.00
2022-12-27T09:13:53.815Z,100.00
2022-12-27T09:16:26.971Z,100.00
2022-12-27T09:19:01.103Z,100.00
2022-12-27T09:21:35.396Z,100.00
2022-12-27T09:24:06.897Z,100.00
2022-12-27T09:26:37.627Z,100.00
2022-12-27T09:29:08.714Z,100.00
2022-12-27T09:31:39.632Z,100.00
2022-12-27T09:34:12.899Z,100.00
2022-12-27T09:36:45.276Z,100.00
2022-12-27T09:39:18.535Z,100.00
2022-12-27T09:45:45.853Z,100.00
2022-12-27T09:48:18.239Z,100.00
2022-12-27T09:50:57.139Z,100.00
2022-12-27T09:53:53.926Z,100.00
2022-12-27T09:56:54.094Z,100.00
2022-12-27T09:59:29.509Z,100.00
2022-12-27T10:02:01.645Z,100.00
2022-12-27T10:05:17.964Z,100.00
2022-12-27T10:07:46.459Z,100.00
2022-12-27T10:10:23.586Z,100.00
2022-12-27T10:13:04.923Z,100.00
2022-12-27T10:16:02.547Z,100.00
2022-12-27T10:18:51.921Z,100.00
2022-12-27T10:21:28.316Z,100.00
2022-12-27T10:24:21.972Z,100.00
2022-12-27T10:26:55.887Z,100.00
2022-12-27T10:29:28.572Z,100.00
2022-12-27T10:31:59.917Z,100.00
2022-12-27T10:34:31.149Z,100.00
2022-12-27T10:37:02.239Z,100.00
2022-12-27T10:39:35.264Z,100.00
2022-12-27T10:42:38.663Z,100.00
2022-12-27T10:45:34.811Z,100.00
2022-12-27T10:48:19.070Z,100.00
2022-12-27T10:50:58.670Z,100.00
2022-12-27T10:53:40.908Z,100.00
2022-12-27T10:56:40.596Z,100.00
2022-12-27T10:59:19.940Z,100.00
2022-12-27T11:02:03.535Z,100.00
2022-12-27T11:04:36.032Z,100.00
2022-12-27T11:07:06.327Z,100.00
2022-12-27T11:09:46.389Z,100.00
2022-12-27T11:12:33.676Z,100.00
2022-12-27T11:15:08.026Z,100.00
2022-12-27T11:17:43.091Z,100.00
2022-12-27T11:20:14.170Z,100.00
2022-12-27T11:22:52.611Z,100.00
2022-12-27T11:25:23.906Z,100.00
2022-12-27T11:28:03.041Z,100.00
2022-12-27T11:30:42.463Z,100.00
2022-12-27T11:33:26.902Z,100.00
2022-12-27T11:35:58.902Z,100.00
2022-12-27T11:38:32.652Z,100.00
2022-12-27T11:41:30.918Z,100.00
2022-12-27T11:44:05.055Z,100.00
2022-12-27T11:46:47.585Z,100.00
2022-12-27T11:49:23.906Z,100.00
2022-12-27T11:52:24.511Z,100.00
2022-12-27T11:55:06.406Z,100.00
2022-12-27T11:58:01.930Z,100.00
2022-12-27T12:00:41.669Z,100.00
2022-12-27T12:03:35.742Z,100.00
2022-12-27T12:06:44.001Z,100.00
2022-12-27T12:09:20.752Z,100.00
2022-12-27T12:12:14.328Z,100.00
2022-12-27T12:14:47.255Z,100.00
2022-12-27T12:17:39.381Z,100.00
2022-12-27T12:20:25.388Z,100.00
2022-12-27T12:23:06.601Z,100.00
2022-12-27T12:26:03.659Z,100.00
2022-12-27T12:29:00.753Z,100.00
2022-12-27T12:31:57.410Z,100.00
2022-12-27T12:34:58.939Z,100.00
2022-12-27T12:38:06.322Z,100.00
2022-12-27T12:40:55.532Z,100.00
2022-12-27T12:43:44.574Z,100.00
2022-12-27T12:46:25.959Z,100.00
2022-12-27T12:49:33.538Z,100.00
2022-12-27T12:52:31.447Z,100.00
2022-12-27T12:55:20.388Z,100.00
2022-12-27T12:58:18.982Z,100.00
2022-12-27T13:01:05.154Z,100.00
2022-12-27T13:03:57.504Z,100.00
2022-12-27T13:06:40.468Z,100.00
2022-12-27T13:09:17.535Z,100.00
2022-12-27T13:12:03.484Z,100.00
2022-12-27T13:14:48.249Z,100.00
2022-12-27T13:17:30.513Z,100.00
2022-12-27T13:20:25.929Z,100.00
2022-12-27T13:23:16.303Z,100.00
2022-12-27T13:26:05.894Z,100.00
2022-12-27T13:29:20.593Z,100.00
2022-12-27T13:32:09.833Z,100.00
2022-12-27T13:34:41.127Z,100.00
2022-12-27T13:37:39.590Z,100.00
2022-12-27T13:40:25.583Z,100.00
2022-12-27T13:42:56.918Z,100.00
2022-12-27T13:45:50.997Z,100.00
2022-12-27T13:48:42.378Z,100.00
2022-12-27T13:51:49.725Z,100.00
2022-12-27T13:54:43.998Z,100.00
2022-12-27T13:57:37.863Z,100.00
2022-12-27T14:00:12.335Z,100.00
2022-12-27T14:02:55.279Z,100.00
2022-12-27T14:05:47.657Z,100.00
2022-12-27T14:09:01.524Z,100.00
2022-12-27T14:12:02.964Z,100.00
2022-12-27T14:14:36.459Z,100.00
2022-12-27T14:17:39.548Z,100.00
2022-12-27T14:20:19.396Z,100.00
2022-12-27T14:23:02.696Z,100.00
2022-12-27T14:25:49.158Z,100.00
2022-12-27T14:28:43.454Z,100.00
2022-12-27T14:31:30.063Z,100.00
2022-12-27T14:34:23.604Z,100.00
2022-12-27T14:37:09.228Z,100.00
2022-12-27T14:40:13.768Z,100.00
2022-12-27T14:43:03.558Z,100.00
2022-12-27T14:45:57.708Z,100.00
2022-12-27T14:48:34.955Z,100.00
2022-12-27T14:51:59.378Z,100.00
2022-12-27T14:54:47.833Z,100.00
2022-12-27T14:57:27.476Z,100.00
2022-12-27T15:00:22.016Z,100.00
2022-12-27T15:03:17.543Z,100.00
2022-12-27T15:06:13.569Z,100.00
2022-12-27T15:09:15.667Z,100.00
2022-12-27T15:12:21.649Z,100.00
2022-12-27T15:15:22.928Z,100.00
2022-12-27T15:18:12.071Z,100.00
2022-12-27T15:20:42.872Z,100.00
2022-12-27T15:23:34.619Z,100.00
2022-12-27T15:26:14.499Z,100.00
2022-12-27T15:29:12.269Z,100.00
2022-12-27T15:32:24.283Z,100.00
2022-12-27T15:35:16.850Z,100.00
2022-12-27T15:38:03.282Z,100.00
2022-12-27T15:40:37.311Z,100.00
2022-12-27T15:43:42.247Z,100.00
2022-12-27T15:46:22.304Z,100.00
2022-12-27T15:49:13.797Z,100.00
2022-12-27T15:52:00.384Z,100.00
2022-12-27T15:54:57.876Z,100.00
2022-12-27T15:57:45.777Z,100.00
2022-12-27T16:00:33.383Z,100.00
2022-12-27T16:03:26.479Z,100.00
2022-12-27T16:05:58.456Z,100.00
2022-12-27T16:08:42.238Z,100.00
2022-12-27T16:11:15.076Z,100.00
2022-12-27T16:13:51.093Z,100.00
2022-12-27T16:16:31.601Z,100.00
2022-12-27T16:19:41.034Z,100.00
2022-12-27T16:22:33.225Z,100.00
2022-12-27T16:25:30.273Z,100.00
2022-12-27T16:28:18.271Z,100.00
2022-12-27T16:30:54.281Z,100.00
2022-12-27T16:33:32.603Z,100.00
2022-12-27T16:36:18.744Z,100.00
2022-12-27T16:39:02.226Z,100.00
2022-12-27T16:41:42.493Z,100.00
2022-12-27T16:44:16.678Z,100.00
2022-12-27T16:46:50.760Z,100.00
2022-12-27T16:49:57.069Z,100.00
2022-12-27T16:52:36.600Z,100.00
2022-12-27T16:55:42.158Z,100.00
2022-12-27T16:58:25.798Z,100.00
2022-12-27T17:00:58.970Z,100.00
2022-12-27T17:03:39.844Z,100.00
2022-12-27T17:06:34.792Z,100.00
2022-12-27T17:09:12.693Z,100.00
2022-12-27T17:12:04.159Z,100.00
2022-12-27T17:14:37.984Z,100.00
2022-12-27T17:17:22.245Z,100.00
2022-12-27T17:19:58.616Z,100.00
2022-12-27T17:22:35.108Z,100.00
2022-12-27T17:25:07.295Z,100.00
2022-12-27T17:27:59.308Z,100.00
2022-12-27T17:30:38.934Z,100.00
2022-12-27T17:33:33.343Z,100.00
2022-12-27T17:36:11.019Z,100.00
2022-12-27T17:39:06.333Z,100.00
2022-12-27T17:42:22.402Z,100.00
2022-12-27T17:45:11.300Z,100.00
2022-12-27T17:47:49.819Z,100.00
2022-12-27T17:50:27.967Z,100.00
2022-12-27T17:53:31.319Z,100.00
2022-12-27T17:56:21.934Z,100.00
2022-12-27T17:58:58.039Z,100.00
2022-12-27T18:01:33.387Z,100.00
2022-12-27T18:04:06.199Z,100.00
2022-12-27T18:06:38.944Z,100.00
2022-12-27T18:09:09.990Z,100.00
2022-12-27T18:11:43.882Z,100.00
2022-12-27T18:14:16.159Z,100.00
2022-12-27T18:16:47.472Z,100.00
2022-12-27T18:19:22.771Z,100.00
2022-12-27T18:22:00.194Z,100.00
2022-12-27T18:24:34.461Z,100.00
2022-12-27T18:27:08.400Z,100.00
2022-12-27T18:29:39.447Z,100.00
2022-12-27T18:32:12.156Z,100.00
2022-12-27T18:34:56.445Z,100.00
2022-12-27T18:37:28.701Z,100.00
2022-12-27T18:40:02.143Z,100.00
2022-12-27T18:42:37.115Z,100.00
2022-12-27T18:45:30.973Z,100.00
2022-12-27T18:48:03.658Z,100.00
2022-12-27T18:50:37.023Z,100.00
2022-12-27T18:53:24.153Z,100.00
2022-12-27T18:56:02.946Z,100.00
2022-12-27T18:58:34.975Z,100.00
2022-12-27T19:01:29.169Z,100.00
2022-12-27T19:04:19.146Z,100.00
2022-12-27T19:07:14.652Z,100.00
2022-12-27T19:09:53.286Z,100.00
2022-12-27T19:12:30.888Z,100.00
2022-12-27T19:15:19.557Z,100.00
2022-12-27T19:17:53.857Z,100.00
2022-12-27T19:20:36.685Z,100.00
2022-12-27T19:23:26.877Z,100.00
2022-12-27T19:26:18.432Z,100.00
2022-12-27T19:29:16.166Z,100.00
2022-12-27T19:32:07.955Z,100.00
2022-12-27T19:34:49.757Z,100.00
2022-12-27T19:37:21.191Z,100.00
2022-12-27T19:39:52.263Z,100.00
2022-12-27T19:42:31.182Z,100.00
2022-12-27T19:45:03.253Z,100.00
2022-12-27T19:47:37.328Z,100.00
2022-12-27T19:50:08.779Z,100.00
2022-12-27T19:52:40.624Z,100.00
2022-12-27T19:55:18.872Z,100.00
2022-12-27T19:57:50.077Z,100.00
2022-12-27T20:00:22.244Z,100.00
2022-12-27T20:02:53.368Z,100.00
2022-12-27T20:06:13.328Z,100.00
2022-12-27T20:08:22.137Z,100.00
2022-12-27T20:10:53.574Z,100.00
2022-12-27T20:13:26.106Z,100.00
2022-12-27T20:15:59.891Z,100.00
2022-12-27T20:18:30.981Z,99.57
2022-12-27T20:21:02.213Z,100.00
2022-12-27T20:23:33.692Z,97.80
2022-12-27T20:26:05.000Z,98.25
2022-12-27T20:28:36.571Z,98.57
2022-12-27T20:31:13.043Z,91.13
2022-12-27T20:33:44.491Z,91.94
2022-12-27T20:36:15.653Z,90.79
2022-12-27T20:38:46.728Z,89.19
2022-12-27T20:41:20.734Z,88.17
2022-12-27T20:43:59.084Z,86.65
2022-12-27T20:46:30.158Z,82.10
2022-12-27T20:49:02.071Z,88.51
2022-12-27T20:51:36.159Z,89.56
2022-12-27T20:54:07.882Z,86.08
2022-12-27T20:56:38.248Z,81.50
2022-12-27T20:59:09.666Z,80.61
2022-12-27T21:01:40.778Z,82.31
2022-12-27T21:04:12.363Z,76.91
2022-12-27T21:06:43.698Z,76.38
2022-12-27T21:09:15.042Z,81.00
2022-12-27T21:11:46.557Z,78.52
2022-12-27T21:14:17.610Z,75.89
2022-12-27T21:16:49.281Z,73.93
2022-12-27T21:19:21.084Z,77.04
2022-12-27T21:21:52.263Z,72.92
2022-12-27T21:24:22.931Z,71.12
2022-12-27T21:26:56.556Z,70.26
2022-12-27T21:29:27.789Z,72.32
2022-12-27T21:31:58.767Z,76.58
2022-12-27T21:34:29.991Z,67.61
2022-12-27T21:37:05.428Z,68.81
2022-12-27T21:39:40.161Z,65.73
2022-12-27T21:42:12.481Z,69.45
2022-12-27T21:44:43.945Z,69.96
2022-12-27T21:47:15.073Z,64.10
2022-12-27T21:49:45.682Z,66.02
2022-12-27T21:52:16.647Z,63.96
2022-12-27T21:54:47.631Z,67.46
2022-12-27T21:57:19.039Z,63.45
2022-12-27T21:59:50.162Z,59.66
2022-12-27T22:02:21.322Z,60.84
2022-12-27T22:04:51.725Z,58.11
2022-12-27T22:07:22.603Z,55.70
2022-12-27T22:09:53.663Z,55.67
2022-12-27T22:12:24.778Z,59.96
2022-12-27T22:14:56.236Z,56.63
2022-12-27T22:17:27.874Z,56.77
2022-12-27T22:19:58.778Z,58.32
2022-12-27T22:22:30.049Z,52.72
2022-12-27T22:25:01.003Z,53.96
2022-12-27T22:27:32.826Z,56.55
2022-12-27T22:30:03.840Z,53.51
2022-12-27T22:32:35.120Z,53.68
2022-12-27T22:35:06.272Z,53.45
2022-12-27T22:37:37.139Z,55.83
2022-12-27T22:40:36.674Z,51.08
2022-12-27T22:43:00.124Z,51.90
2022-12-27T22:45:31.343Z,52.66
2022-12-27T22:48:01.804Z,51.08
2022-12-27T22:50:32.703Z,50.91
2022-12-27T22:53:04.005Z,51.25
2022-12-27T22:55:34.452Z,46.43
2022-12-27T22:58:05.429Z,50.46
2022-12-27T23:00:36.581Z,45.26
2022-12-27T23:03:07.804Z,47.10
2022-12-27T23:05:39.167Z,46.04
2022-12-27T23:08:10.282Z,51.86
2022-12-27T23:10:41.119Z,51.76
2022-12-27T23:13:11.679Z,49.21
2022-12-27T23:15:42.723Z,49.31
2022-12-27T23:18:14.348Z,48.89
2022-12-27T23:21:21.165Z,47.23
2022-12-27T23:23:38.323Z,49.02
2022-12-27T23:26:20.505Z,45.57
2022-12-27T23:28:53.698Z,51.19
2022-12-27T23:31:26.759Z,48.97
2022-12-27T23:33:58.355Z,51.43
2022-12-27T23:36:29.602Z,51.17
2022-12-27T23:39:00.858Z,47.72
2022-12-27T23:41:32.195Z,47.89
2022-12-27T23:44:03.480Z,51.60
2022-12-27T23:46:36.632Z,52.71
2022-12-27T23:49:07.587Z,51.24
2022-12-27T23:51:39.020Z,49.60
2022-12-27T23:54:09.513Z,48.04
2022-12-27T23:56:40.811Z,48.17
2022-12-27T23:59:13.099Z,47.45
